Time;durP1;ratioP1;P1;durP2;ratioP2;P2;SDS_P1;SDS_P2;PMS_P1;PMS_P2;Temp;Humidity;BMP_temperature;BMP_pressure;BME280_temperature;BME280_humidity;BME280_pressure;Samples;Min_cycle;Max_cycle;Signal;HPM_P1;HPM_P2
2022/02/20 00:01:32;;;;;;;13.40;3.45;;;7.90;58.60;;;;;;5018404;28;20407;-74
2022/02/20 00:03:59;;;;;;;9.80;2.90;;;7.90;56.10;;;;;;5022566;28;20415;-73
2022/02/20 00:06:25;;;;;;;10.73;2.30;;;7.90;54.80;;;;;;5020909;28;20843;-75
2022/02/20 00:08:51;;;;;;;9.50;2.90;;;7.80;51.80;;;;;;5027373;28;20422;-73
2022/02/20 00:11:17;;;;;;;8.80;3.03;;;7.80;50.00;;;;;;5021067;28;20404;-74
2022/02/20 00:13:42;;;;;;;5.27;2.40;;;7.80;46.20;;;;;;5024117;28;20422;-74
2022/02/20 00:16:08;;;;;;;4.63;2.20;;;7.90;43.70;;;;;;5019585;28;20455;-74
2022/02/20 00:18:34;;;;;;;7.47;2.90;;;8.00;43.10;;;;;;5018843;28;20409;-73
2022/02/20 00:21:00;;;;;;;6.80;2.90;;;8.00;42.30;;;;;;5025192;28;20399;-74
2022/02/20 00:23:25;;;;;;;5.28;2.97;;;8.10;41.70;;;;;;5026157;28;20434;-73
2022/02/20 00:25:51;;;;;;;7.13;3.13;;;8.20;42.60;;;;;;5027776;28;20477;-73
2022/02/20 00:28:16;;;;;;;10.00;3.17;;;8.10;43.20;;;;;;5026532;28;20892;-74
2022/02/20 00:30:43;;;;;;;6.73;3.00;;;8.10;42.60;;;;;;5025525;28;20407;-73
2022/02/20 00:33:09;;;;;;;9.68;3.05;;;8.20;42.10;;;;;;5025482;28;20482;-74
2022/02/20 00:35:35;;;;;;;6.55;2.78;;;8.20;43.30;;;;;;5024783;28;20754;-74
2022/02/20 00:38:03;;;;;;;10.73;3.10;;;8.20;44.20;;;;;;5026382;28;20391;-72
2022/02/20 00:40:30;;;;;;;6.90;2.40;;;8.20;45.30;;;;;;5025107;28;20459;-74
2022/02/20 00:42:56;;;;;;;9.00;3.17;;;8.10;46.30;;;;;;5027529;28;20407;-74
2022/02/20 00:45:21;;;;;;;12.50;3.73;;;7.80;47.40;;;;;;5025131;28;20393;-74
2022/02/20 00:47:47;;;;;;;7.18;3.08;;;7.80;45.60;;;;;;5026903;28;20427;-74
2022/02/20 00:50:13;;;;;;;9.32;3.30;;;7.60;45.60;;;;;;5027262;28;20406;-75
2022/02/20 00:52:39;;;;;;;11.17;4.20;;;7.40;44.60;;;;;;5029851;28;20432;-74
2022/02/20 00:55:05;;;;;;;8.10;3.23;;;7.30;44.60;;;;;;5031490;28;20429;-74
2022/02/20 00:57:31;;;;;;;7.93;4.22;;;7.10;44.00;;;;;;5028006;28;20908;-74
2022/02/20 00:59:56;;;;;;;6.77;3.70;;;7.00;44.60;;;;;;5031365;28;20399;-74
2022/02/20 01:02:22;;;;;;;7.53;3.10;;;6.90;44.70;;;;;;5027762;28;20391;-74
2022/02/20 01:04:47;;;;;;;13.48;4.35;;;6.90;44.80;;;;;;5030379;28;20434;-74
2022/02/20 01:07:13;;;;;;;10.82;4.40;;;6.80;46.10;;;;;;5030481;28;20395;-74
2022/02/20 01:09:38;;;;;;;8.82;3.78;;;6.70;47.50;;;;;;5024971;28;20388;-74
2022/02/20 01:12:05;;;;;;;12.52;4.30;;;6.70;46.90;;;;;;5032556;28;20395;-75
2022/02/20 01:14:31;;;;;;;11.27;4.50;;;6.60;47.30;;;;;;5031512;28;20395;-75
2022/02/20 01:16:57;;;;;;;9.00;4.22;;;6.60;48.90;;;;;;5031141;28;20772;-74
2022/02/20 01:19:23;;;;;;;7.55;4.10;;;6.60;49.30;;;;;;5029706;28;20399;-74
2022/02/20 01:21:48;;;;;;;10.45;4.45;;;6.50;50.50;;;;;;5033121;28;20401;-73
2022/02/20 01:24:14;;;;;;;17.35;5.00;;;6.40;49.10;;;;;;5036758;28;20895;-73
2022/02/20 01:26:40;;;;;;;11.45;4.75;;;6.40;50.00;;;;;;5035977;28;20472;-73
2022/02/20 01:29:06;;;;;;;10.45;4.72;;;6.50;49.10;;;;;;5038171;28;20954;-73
2022/02/20 01:31:32;;;;;;;8.38;4.10;;;6.60;48.50;;;;;;5034200;28;20395;-74
2022/02/20 01:33:57;;;;;;;11.23;4.47;;;6.60;48.60;;;;;;5036463;28;20402;-73
2022/02/20 01:36:23;;;;;;;11.33;4.17;;;6.60;48.80;;;;;;5027373;28;20449;-72
2022/02/20 01:38:48;;;;;;;11.30;3.50;;;6.60;48.70;;;;;;5029854;28;20407;-74
2022/02/20 01:41:19;;;;;;;13.63;3.77;;;6.60;46.90;;;;;;5029117;28;20395;-73
2022/02/20 01:43:44;;;;;;;9.75;3.30;;;6.60;47.10;;;;;;5021617;28;20504;-74
2022/02/20 01:46:10;;;;;;;9.97;3.97;;;6.60;47.00;;;;;;5026682;28;20802;-74
2022/02/20 01:48:36;;;;;;;9.23;3.78;;;6.60;47.50;;;;;;5022846;28;20897;-75
2022/02/20 01:51:05;;;;;;;10.85;4.10;;;6.70;47.20;;;;;;5031365;28;20391;-74
2022/02/20 01:53:32;;;;;;;11.20;3.65;;;6.70;47.50;;;;;;5028043;28;20765;-74
2022/02/20 01:55:57;;;;;;;11.35;3.80;;;6.70;47.10;;;;;;5031231;28;20410;-76
2022/02/20 01:58:23;;;;;;;9.70;2.92;;;6.60;47.20;;;;;;5027991;28;20489;-73
2022/02/20 02:00:49;;;;;;;8.10;2.80;;;6.60;46.90;;;;;;5032813;28;20832;-75
2022/02/20 02:03:16;;;;;;;9.55;2.90;;;6.60;47.10;;;;;;5025687;28;20491;-73
2022/02/20 02:05:43;;;;;;;14.18;3.38;;;6.60;47.70;;;;;;5043639;28;20443;-74
2022/02/20 02:08:09;;;;;;;7.80;2.88;;;6.60;48.10;;;;;;5022598;28;20415;-74
2022/02/20 02:10:35;;;;;;;9.88;3.03;;;6.60;47.60;;;;;;5037077;28;20392;-74
2022/02/20 02:13:00;;;;;;;8.13;3.40;;;6.50;47.80;;;;;;5028956;28;20880;-75
2022/02/20 02:15:26;;;;;;;8.55;2.30;;;6.50;48.00;;;;;;5020357;28;20401;-74
2022/02/20 02:17:52;;;;;;;7.43;2.53;;;6.60;47.80;;;;;;5029021;28;20456;-74
2022/02/20 02:20:17;;;;;;;10.53;2.50;;;6.60;47.90;;;;;;5028192;28;20451;-74
2022/02/20 02:22:43;;;;;;;11.30;2.80;;;6.50;49.00;;;;;;5028179;28;20399;-73
2022/02/20 02:25:09;;;;;;;11.30;2.50;;;6.60;48.50;;;;;;5028978;28;20387;-73
2022/02/20 02:27:35;;;;;;;9.05;2.58;;;6.60;48.20;;;;;;5021799;28;20388;-74
2022/02/20 02:30:04;;;;;;;17.08;2.72;;;6.60;48.30;;;;;;5022436;28;20415;-75
2022/02/20 02:32:30;;;;;;;11.47;2.87;;;6.60;48.60;;;;;;5027330;28;20431;-74
2022/02/20 02:34:56;;;;;;;8.20;2.63;;;6.60;48.30;;;;;;5034206;28;20406;-74
2022/02/20 02:37:22;;;;;;;12.10;2.60;;;6.60;48.30;;;;;;5029595;28;20748;-74
2022/02/20 02:39:48;;;;;;;9.18;2.53;;;6.60;49.10;;;;;;5022141;28;20477;-75
2022/02/20 02:42:13;;;;;;;9.55;2.63;;;6.60;48.90;;;;;;5028228;28;20395;-74
2022/02/20 02:44:39;;;;;;;9.32;2.17;;;7.30;50.10;;;;;;5021067;28;20415;-74
2022/02/20 02:47:05;;;;;;;9.40;2.40;;;6.50;50.10;;;;;;5028485;28;20395;-74
2022/02/20 02:49:31;;;;;;;11.20;2.40;;;6.50;50.60;;;;;;5015030;28;20453;-74
2022/02/20 02:51:57;;;;;;;13.82;3.00;;;6.50;50.40;;;;;;5023216;28;20395;-74
2022/02/20 02:54:23;;;;;;;10.77;2.85;;;6.60;50.00;;;;;;5041890;28;20510;-74
2022/02/20 02:56:50;;;;;;;8.43;2.40;;;6.60;49.20;;;;;;5027701;28;20493;-74
2022/02/20 02:59:17;;;;;;;9.30;2.53;;;6.60;49.10;;;;;;5022066;28;20407;-74
2022/02/20 03:01:43;;;;;;;5.15;2.30;;;6.50;48.00;;;;;;5027363;28;21022;-74
2022/02/20 03:04:09;;;;;;;10.20;2.28;;;6.50;48.20;;;;;;5022825;28;20410;-74
2022/02/20 03:06:35;;;;;;;6.17;2.10;;;6.60;47.80;;;;;;5020794;28;20771;-74
2022/02/20 03:09:01;;;;;;;10.07;1.80;;;6.60;48.20;;;;;;5028042;28;20433;-75
2022/02/20 03:11:27;;;;;;;9.38;2.40;;;6.50;49.20;;;;;;5020142;28;20398;-74
2022/02/20 03:13:53;;;;;;;8.60;2.38;;;6.50;49.20;;;;;;5030209;28;20494;-74
2022/02/20 03:16:18;;;;;;;8.93;2.65;;;6.60;48.40;;;;;;5031131;28;20399;-75
2022/02/20 03:18:44;;;;;;;15.47;3.10;;;6.50;49.60;;;;;;5027953;28;20431;-74
2022/02/20 03:21:09;;;;;;;5.30;2.27;;;6.60;49.20;;;;;;5028662;28;20399;-75
2022/02/20 03:23:35;;;;;;;10.33;2.60;;;6.60;48.90;;;;;;5035716;28;20455;-74
2022/02/20 03:26:02;;;;;;;10.82;2.55;;;6.60;47.40;;;;;;5021941;28;20390;-74
2022/02/20 03:28:27;;;;;;;6.45;2.88;;;6.60;46.10;;;;;;5026034;28;20399;-74
2022/02/20 03:30:53;;;;;;;8.82;2.40;;;6.60;46.40;;;;;;5028273;28;20422;-74
2022/02/20 03:33:19;;;;;;;11.45;2.22;;;6.50;47.70;;;;;;5026955;28;20430;-74
2022/02/20 03:35:45;;;;;;;8.37;2.30;;;6.50;47.60;;;;;;5027523;28;20395;-74
2022/02/20 03:38:11;;;;;;;14.38;3.15;;;6.40;48.50;;;;;;5031730;28;20849;-74
2022/02/20 03:40:37;;;;;;;13.75;3.08;;;6.40;48.20;;;;;;5034696;28;20407;-74
2022/02/20 03:43:03;;;;;;;11.00;3.33;;;6.30;49.40;;;;;;5023377;28;20422;-76
2022/02/20 03:45:30;;;;;;;10.50;3.38;;;6.20;49.90;;;;;;5026014;28;20468;-74
2022/02/20 03:47:56;;;;;;;6.78;3.58;;;6.20;50.10;;;;;;5015599;28;20449;-73
2022/02/20 03:50:22;;;;;;;14.45;3.60;;;6.20;50.30;;;;;;5025156;28;20403;-73
2022/02/20 03:52:49;;;;;;;7.60;3.58;;;6.10;50.70;;;;;;5024474;28;20430;-73
2022/02/20 03:55:16;;;;;;;7.53;3.40;;;6.20;50.60;;;;;;5023584;28;20402;-74
2022/02/20 03:57:41;;;;;;;10.65;3.45;;;6.10;51.00;;;;;;5020401;28;20762;-73
2022/02/20 04:00:11;;;;;;;10.93;3.90;;;6.00;51.80;;;;;;5028420;28;20409;-74
2022/02/20 04:02:38;;;;;;;13.13;4.07;;;6.10;51.70;;;;;;5027954;28;20435;-74
2022/02/20 04:05:06;;;;;;;8.90;3.77;;;6.10;51.90;;;;;;5046812;28;20410;-74
2022/02/20 04:07:32;;;;;;;4.43;3.40;;;6.10;51.40;;;;;;5023312;28;20419;-74
2022/02/20 04:09:59;;;;;;;7.85;3.55;;;6.00;51.80;;;;;;5026223;28;20404;-73
2022/02/20 04:12:25;;;;;;;11.18;3.10;;;5.90;52.70;;;;;;5020857;28;20395;-73
2022/02/20 04:14:51;;;;;;;7.78;3.47;;;5.90;51.90;;;;;;5029146;28;20897;-73
2022/02/20 04:17:17;;;;;;;8.47;4.07;;;5.80;52.00;;;;;;5026237;28;20445;-73
2022/02/20 04:19:43;;;;;;;8.43;4.07;;;5.70;53.10;;;;;;5026392;28;20483;-73
2022/02/20 04:22:08;;;;;;;11.03;3.77;;;5.60;55.10;;;;;;5025275;28;20397;-73
2022/02/20 04:24:34;;;;;;;10.00;3.80;;;5.50;55.80;;;;;;5027595;28;20425;-74
2022/02/20 04:26:59;;;;;;;10.90;3.90;;;5.40;57.30;;;;;;5034563;28;20399;-74
2022/02/20 04:29:25;;;;;;;13.73;4.43;;;5.40;58.30;;;;;;5033543;28;20398;-74
2022/02/20 04:31:51;;;;;;;12.70;3.60;;;5.30;58.00;;;;;;5030999;28;20837;-73
2022/02/20 04:34:16;;;;;;;6.40;3.60;;;5.30;58.80;;;;;;5036004;28;20398;-73
2022/02/20 04:36:42;;;;;;;8.00;4.00;;;5.30;59.10;;;;;;5038531;28;20735;-74
2022/02/20 04:39:11;;;;;;;9.23;3.90;;;5.30;59.10;;;;;;5031899;28;20414;-75
2022/02/20 04:41:36;;;;;;;9.32;4.43;;;5.30;59.80;;;;;;5027847;28;20458;-74
2022/02/20 04:44:02;;;;;;;8.77;4.30;;;5.30;59.80;;;;;;5030780;28;20414;-74
2022/02/20 04:46:27;;;;;;;8.70;4.32;;;5.30;61.90;;;;;;5027582;28;20403;-74
2022/02/20 04:48:53;;;;;;;11.68;4.40;;;5.30;60.40;;;;;;5030230;28;20405;-72
2022/02/20 04:51:19;;;;;;;11.65;4.25;;;5.40;59.60;;;;;;5029504;28;20399;-73
2022/02/20 04:53:44;;;;;;;12.87;4.87;;;5.50;57.80;;;;;;5027780;28;20398;-73
2022/02/20 04:56:10;;;;;;;12.10;4.70;;;5.50;57.60;;;;;;5024640;28;20394;-73
2022/02/20 04:58:36;;;;;;;10.90;5.20;;;5.50;58.50;;;;;;5028681;28;20890;-73
2022/02/20 05:01:02;;;;;;;12.40;5.43;;;5.50;60.50;;;;;;5033586;28;20506;-73
2022/02/20 05:03:27;;;;;;;10.75;5.60;;;5.50;58.60;;;;;;5028154;28;20423;-73
2022/02/20 05:05:54;;;;;;;14.30;7.30;;;5.50;59.00;;;;;;5029764;28;20759;-73
2022/02/20 05:08:19;;;;;;;12.98;5.70;;;5.50;59.10;;;;;;5027341;28;20887;-73
2022/02/20 05:10:45;;;;;;;12.37;5.87;;;5.50;59.70;;;;;;5030038;28;20426;-73
2022/02/20 05:13:10;;;;;;;10.23;6.23;;;5.60;58.50;;;;;;5027138;28;20407;-73
2022/02/20 05:15:36;;;;;;;11.30;6.00;;;5.80;57.10;;;;;;5028836;28;20460;-72
2022/02/20 05:18:02;;;;;;;13.00;5.70;;;5.80;57.50;;;;;;5030054;28;20403;-73
2022/02/20 05:20:27;;;;;;;11.18;5.70;;;5.70;57.40;;;;;;5028059;28;20491;-73
2022/02/20 05:22:53;;;;;;;10.38;5.57;;;5.70;58.70;;;;;;5021745;28;20456;-73
2022/02/20 05:25:18;;;;;;;12.70;5.80;;;5.70;59.10;;;;;;5028108;28;20402;-73
2022/02/20 05:27:44;;;;;;;10.32;5.32;;;5.90;58.00;;;;;;5021961;28;20387;-74
2022/02/20 05:30:11;;;;;;;12.43;6.00;;;5.80;56.80;;;;;;5024107;28;20441;-73
2022/02/20 05:32:37;;;;;;;15.65;6.70;;;5.80;57.20;;;;;;5023598;28;20396;-73
2022/02/20 05:35:03;;;;;;;16.80;6.10;;;5.80;58.00;;;;;;5029360;28;20394;-73
2022/02/20 05:37:29;;;;;;;12.20;6.60;;;5.90;59.10;;;;;;5025923;28;20402;-73
2022/02/20 05:39:54;;;;;;;13.30;6.70;;;5.80;60.90;;;;;;5030716;28;20791;-73
2022/02/20 05:42:20;;;;;;;10.10;6.75;;;5.90;61.20;;;;;;5029374;28;20819;-73
2022/02/20 05:44:45;;;;;;;12.23;7.38;;;5.90;61.20;;;;;;5029724;28;20946;-73
2022/02/20 05:47:13;;;;;;;15.80;8.25;;;5.90;61.70;;;;;;5030110;28;20395;-73
2022/02/20 05:49:39;;;;;;;17.38;9.10;;;5.70;63.60;;;;;;5020706;28;20428;-73
2022/02/20 05:52:04;;;;;;;19.83;8.00;;;5.70;65.80;;;;;;5029578;28;20409;-73
2022/02/20 05:54:30;;;;;;;13.20;7.87;;;5.90;64.80;;;;;;5028805;28;20402;-73
2022/02/20 05:56:55;;;;;;;14.40;8.30;;;5.90;63.00;;;;;;5031497;28;20401;-73
2022/02/20 05:59:21;;;;;;;11.87;8.03;;;5.80;64.60;;;;;;5030857;28;20432;-75
2022/02/20 06:01:47;;;;;;;16.50;8.37;;;5.90;65.80;;;;;;5022765;28;20395;-72
2022/02/20 06:04:12;;;;;;;18.17;7.90;;;5.80;66.20;;;;;;5027289;28;20472;-72
2022/02/20 06:06:38;;;;;;;16.15;8.02;;;5.70;67.60;;;;;;5027455;28;20965;-73
2022/02/20 06:09:04;;;;;;;11.80;7.80;;;5.80;69.00;;;;;;5028971;28;20388;-72
2022/02/20 06:11:30;;;;;;;15.63;8.43;;;5.90;67.50;;;;;;5026985;28;20395;-72
2022/02/20 06:13:56;;;;;;;15.50;8.68;;;5.80;68.40;;;;;;5028979;28;20411;-73
2022/02/20 06:16:22;;;;;;;18.17;8.48;;;5.70;72.40;;;;;;5028810;28;20411;-73
2022/02/20 06:18:48;;;;;;;14.77;8.40;;;5.80;72.50;;;;;;5026703;28;20460;-75
2022/02/20 06:21:14;;;;;;;16.37;9.47;;;5.80;73.30;;;;;;5027688;28;20418;-75
2022/02/20 06:23:40;;;;;;;17.60;8.43;;;5.70;76.50;;;;;;5026843;28;20463;-74
2022/02/20 06:26:06;;;;;;;15.37;9.00;;;5.70;78.20;;;;;;5028822;28;20399;-75
2022/02/20 06:28:32;;;;;;;20.95;8.90;;;5.80;78.70;;;;;;5026816;28;20397;-75
2022/02/20 06:30:58;;;;;;;17.90;9.52;;;5.80;79.90;;;;;;5028735;28;20426;-74
2022/02/20 06:33:23;;;;;;;18.98;9.38;;;5.70;81.70;;;;;;5025710;28;20884;-74
2022/02/20 06:35:49;;;;;;;15.25;8.50;;;5.80;83.70;;;;;;5043603;28;20601;-74
2022/02/20 06:38:15;;;;;;;21.13;10.25;;;5.70;86.40;;;;;;5026963;28;20400;-75
2022/02/20 06:40:40;;;;;;;17.27;8.67;;;5.70;88.00;;;;;;5026673;28;20964;-75
2022/02/20 06:43:06;;;;;;;30.00;10.60;;;5.80;88.90;;;;;;5021576;28;20407;-72
2022/02/20 06:45:31;;;;;;;18.80;10.13;;;5.70;90.80;;;;;;5025507;28;20462;-72
2022/02/20 06:47:57;;;;;;;22.67;9.83;;;5.90;89.40;;;;;;5027807;28;20469;-76
2022/02/20 06:50:23;;;;;;;27.00;10.73;;;5.80;89.60;;;;;;5023030;28;20395;-76
2022/02/20 06:52:48;;;;;;;17.83;9.77;;;5.80;93.10;;;;;;5028747;28;20942;-77
2022/02/20 06:55:14;;;;;;;19.35;9.50;;;6.00;92.70;;;;;;5028192;28;20399;-76
2022/02/20 06:57:40;;;;;;;20.50;9.43;;;5.90;94.40;;;;;;5027079;28;20415;-76
2022/02/20 07:00:10;;;;;;;28.05;10.30;;;6.10;96.10;;;;;;5023350;28;20395;-75
2022/02/20 07:02:37;;;;;;;27.05;9.27;;;6.20;94.40;;;;;;5027085;28;21016;-75
2022/02/20 07:05:04;;;;;;;26.63;9.65;;;6.20;94.40;;;;;;5027528;28;20526;-75
2022/02/20 07:07:30;;;;;;;21.05;9.70;;;6.20;96.40;;;;;;5038458;28;20403;-75
2022/02/20 07:09:55;;;;;;;22.23;9.40;;;7.00;99.40;;;;;;5040913;28;20396;-75
2022/02/20 07:12:21;;;;;;;22.30;8.70;;;6.30;98.70;;;;;;5025810;28;20465;-75
2022/02/20 07:14:47;;;;;;;31.83;8.83;;;6.60;97.70;;;;;;5019603;28;20435;-74
2022/02/20 07:17:12;;;;;;;19.57;8.07;;;6.60;95.30;;;;;;5022189;28;20399;-74
2022/02/20 07:19:38;;;;;;;23.43;8.80;;;6.70;95.60;;;;;;5025706;28;20813;-76
2022/02/20 07:22:03;;;;;;;26.63;8.30;;;6.70;97.80;;;;;;5028404;28;20794;-74
2022/02/20 07:24:29;;;;;;;27.85;7.50;;;6.80;98.60;;;;;;5028276;28;20851;-75
2022/02/20 07:26:55;;;;;;;24.77;7.53;;;6.80;98.60;;;;;;5024054;28;20395;-75
2022/02/20 07:29:23;;;;;;;21.50;7.27;;;7.00;99.10;;;;;;5031226;28;20402;-76
2022/02/20 07:31:49;;;;;;;19.52;6.72;;;7.00;98.50;;;;;;5031356;28;20391;-75
2022/02/20 07:34:15;;;;;;;26.20;7.47;;;6.90;99.90;;;;;;5030751;28;20452;-75
2022/02/20 07:36:43;;;;;;;27.30;6.97;;;7.10;99.90;;;;;;5025313;28;20838;-75
2022/02/20 07:39:10;;;;;;;30.33;6.97;;;7.20;99.90;;;;;;5020890;28;20398;-76
2022/02/20 07:41:37;;;;;;;26.93;6.23;;;7.30;99.20;;;;;;5021704;28;20517;-75
2022/02/20 07:44:04;;;;;;;21.42;6.43;;;7.30;99.90;;;;;;5026499;28;20415;-75
2022/02/20 07:46:30;;;;;;;17.73;5.32;;;7.40;99.90;;;;;;5030602;28;20390;-76
2022/02/20 07:48:57;;;;;;;22.08;5.55;;;7.60;99.90;;;;;;5029941;28;20403;-72
2022/02/20 07:51:24;;;;;;;17.67;4.35;;;7.90;98.90;;;;;;5024960;28;20482;-71
2022/02/20 07:53:49;;;;;;;23.80;3.97;;;8.00;96.90;;;;;;5026493;28;20503;-71
2022/02/20 07:56:16;;;;;;;20.23;3.97;;;8.20;95.90;;;;;;5015446;28;20405;-72
2022/02/20 07:58:43;;;;;;;21.27;4.25;;;8.30;94.20;;;;;;5016538;28;20904;-74
2022/02/20 08:01:10;;;;;;;20.92;3.92;;;8.40;93.60;;;;;;5020916;28;20402;-74
2022/02/20 08:03:36;;;;;;;16.83;3.83;;;8.50;92.60;;;;;;5016043;28;20439;-73
2022/02/20 08:06:03;;;;;;;16.05;3.90;;;8.60;93.20;;;;;;5019213;28;20407;-72
2022/02/20 08:08:29;;;;;;;18.85;3.58;;;8.70;91.40;;;;;;5014935;28;20426;-73
2022/02/20 08:10:56;;;;;;;26.02;4.00;;;8.70;90.60;;;;;;5013074;28;20748;-74
2022/02/20 08:13:22;;;;;;;10.95;2.90;;;8.80;90.10;;;;;;5013959;28;20403;-74
2022/02/20 08:15:48;;;;;;;12.43;3.90;;;8.90;89.60;;;;;;5016787;28;20494;-73
2022/02/20 08:18:14;;;;;;;9.60;2.85;;;8.90;89.00;;;;;;5016700;28;20407;-74
2022/02/20 08:20:40;;;;;;;15.45;3.60;;;9.00;86.60;;;;;;5018868;28;20921;-73
2022/02/20 08:23:06;;;;;;;9.93;2.90;;;8.90;88.60;;;;;;5032256;28;20427;-73
2022/02/20 08:25:32;;;;;;;17.77;3.42;;;9.10;89.10;;;;;;5018628;28;20403;-73
2022/02/20 08:27:58;;;;;;;11.93;3.60;;;9.10;88.70;;;;;;5018847;28;20395;-73
2022/02/20 08:30:23;;;;;;;11.70;3.30;;;9.10;89.70;;;;;;5018323;28;20421;-72
2022/02/20 08:32:49;;;;;;;11.70;3.13;;;9.10;89.70;;;;;;5018867;28;20493;-72
2022/02/20 08:35:15;;;;;;;10.13;3.03;;;9.20;89.80;;;;;;5020738;28;20490;-74
2022/02/20 08:37:45;;;;;;;11.47;3.43;;;9.20;89.50;;;;;;5021690;28;20443;-73
2022/02/20 08:40:13;;;;;;;11.23;3.80;;;9.30;89.30;;;;;;5016071;28;20395;-73
2022/02/20 08:42:39;;;;;;;12.88;3.50;;;9.40;88.30;;;;;;5020590;28;20421;-72
2022/02/20 08:45:06;;;;;;;13.63;2.90;;;9.40;88.20;;;;;;5023215;28;20479;-74
2022/02/20 08:47:31;;;;;;;14.10;3.38;;;9.50;85.60;;;;;;5018625;28;20896;-73
2022/02/20 08:49:58;;;;;;;9.50;3.30;;;9.50;87.60;;;;;;5020708;28;20408;-73
2022/02/20 08:52:24;;;;;;;9.65;2.60;;;9.50;87.30;;;;;;5030489;28;20403;-73
2022/02/20 08:54:50;;;;;;;16.70;2.80;;;9.60;85.60;;;;;;5019366;28;20404;-73
2022/02/20 08:57:16;;;;;;;8.43;2.83;;;9.60;85.40;;;;;;5022784;28;20460;-74
2022/02/20 08:59:42;;;;;;;11.50;2.72;;;9.70;85.40;;;;;;5017645;28;20411;-74
2022/02/20 09:02:09;;;;;;;7.72;3.00;;;9.70;85.60;;;;;;5020228;28;20397;-72
2022/02/20 09:04:36;;;;;;;7.50;2.55;;;9.70;85.30;;;;;;5011776;28;20416;-72
2022/02/20 09:07:03;;;;;;;7.57;2.80;;;9.70;85.40;;;;;;5018236;28;20408;-72
2022/02/20 09:09:29;;;;;;;14.48;3.30;;;9.80;85.10;;;;;;5017385;28;20400;-73
2022/02/20 09:11:54;;;;;;;9.07;2.80;;;9.70;85.40;;;;;;5026981;28;20496;-74
2022/02/20 09:14:20;;;;;;;7.93;2.90;;;9.80;86.30;;;;;;5029031;28;20480;-74
2022/02/20 09:16:46;;;;;;;10.60;2.90;;;9.80;86.60;;;;;;5023686;28;20552;-71
2022/02/20 09:19:12;;;;;;;8.63;2.80;;;9.80;86.30;;;;;;5028034;28;20440;-73
2022/02/20 09:21:37;;;;;;;10.98;2.50;;;9.80;86.80;;;;;;5015723;28;20397;-72
2022/02/20 09:24:03;;;;;;;13.27;3.10;;;9.80;87.60;;;;;;5022833;28;20439;-74
2022/02/20 09:26:29;;;;;;;9.07;2.90;;;9.90;86.20;;;;;;5022555;28;20418;-74
2022/02/20 09:28:54;;;;;;;12.97;2.97;;;10.00;86.00;;;;;;5019454;28;20399;-72
2022/02/20 09:31:20;;;;;;;11.90;3.20;;;10.00;85.20;;;;;;5019594;28;20404;-73
2022/02/20 09:33:46;;;;;;;8.30;2.90;;;10.00;86.10;;;;;;5022788;28;20577;-73
2022/02/20 09:36:11;;;;;;;7.80;2.75;;;10.00;86.20;;;;;;5020480;28;20400;-74
2022/02/20 09:38:37;;;;;;;8.63;2.83;;;10.00;85.60;;;;;;5017153;28;20404;-74
2022/02/20 09:41:07;;;;;;;11.02;2.90;;;10.00;83.40;;;;;;5019161;28;20410;-74
2022/02/20 09:43:34;;;;;;;10.50;3.30;;;10.00;85.90;;;;;;5023745;28;20438;-73
2022/02/20 09:46:01;;;;;;;10.73;2.95;;;10.00;85.40;;;;;;5023106;28;20393;-74
2022/02/20 09:48:27;;;;;;;10.75;2.70;;;10.00;83.60;;;;;;5017638;28;20459;-74
2022/02/20 09:50:52;;;;;;;8.90;2.55;;;10.00;83.20;;;;;;5020670;28;20872;-74
2022/02/20 09:53:18;;;;;;;10.48;2.50;;;10.00;83.00;;;;;;5022910;28;20423;-74
2022/02/20 09:55:46;;;;;;;6.50;2.45;;;10.10;82.80;;;;;;5019399;28;20487;-74
2022/02/20 09:58:13;;;;;;;4.22;2.20;;;10.20;79.10;;;;;;5018689;28;20929;-73
2022/02/20 10:00:53;;;;;;;9.57;2.50;;;10.20;81.90;;;;;;5020626;28;20486;-74
2022/02/20 10:03:33;;;;;;;6.38;2.10;;;10.20;84.70;;;;;;5017930;28;20408;-74
2022/02/20 10:06:01;;;;;;;11.05;2.20;;;10.20;84.90;;;;;;5018809;28;20876;-74
2022/02/20 10:08:35;;;;;;;8.80;2.20;;;10.20;85.80;;;;;;5019718;28;20406;-74
2022/02/20 10:11:22;;;;;;;5.95;2.13;;;10.30;85.50;;;;;;5025235;28;20405;-74
2022/02/20 10:13:52;;;;;;;7.50;2.40;;;10.30;85.40;;;;;;5016248;28;20492;-74
2022/02/20 10:16:25;;;;;;;5.90;2.38;;;10.30;87.90;;;;;;5016912;28;20413;-74
2022/02/20 10:18:56;;;;;;;4.82;2.50;;;10.40;86.00;;;;;;5023323;28;20486;-75
2022/02/20 10:21:25;;;;;;;9.23;2.75;;;10.40;83.90;;;;;;5036948;28;20892;-73
2022/02/20 10:23:53;;;;;;;7.30;2.30;;;10.40;82.90;;;;;;5017940;28;20482;-74
2022/02/20 10:26:24;;;;;;;6.50;2.40;;;10.50;83.00;;;;;;5021594;28;20420;-74
2022/02/20 10:29:10;;;;;;;7.18;2.40;;;10.50;81.90;;;;;;5029714;28;20554;-74
2022/02/20 10:31:37;;;;;;;8.50;3.00;;;10.60;78.90;;;;;;5014938;28;20519;-75
2022/02/20 10:34:12;;;;;;;8.55;2.67;;;10.70;76.80;;;;;;5020502;28;20396;-74
2022/02/20 10:36:48;;;;;;;17.50;6.60;;;10.90;73.80;;;;;;5029881;28;20402;-73
2022/02/20 10:39:30;;;;;;;15.57;3.55;;;10.90;74.00;;;;;;5020497;28;20423;-76
2022/02/20 10:41:57;;;;;;;14.25;3.42;;;10.90;71.70;;;;;;5021673;28;20408;-76
2022/02/20 10:44:24;;;;;;;10.65;2.85;;;10.90;73.00;;;;;;5015792;28;20408;-74
2022/02/20 10:47:11;;;;;;;15.50;5.10;;;10.90;71.00;;;;;;5016500;28;20408;-73
2022/02/20 10:49:37;;;;;;;9.18;2.72;;;11.00;70.50;;;;;;5013799;28;20432;-73
2022/02/20 10:52:03;;;;;;;14.27;3.10;;;11.00;68.80;;;;;;5016268;28;20444;-73
2022/02/20 10:54:29;;;;;;;13.15;3.10;;;11.10;67.50;;;;;;5018934;28;20716;-74
2022/02/20 10:56:54;;;;;;;17.73;3.60;;;11.10;66.40;;;;;;5022464;28;20396;-73
2022/02/20 10:59:21;;;;;;;9.63;2.50;;;11.20;65.90;;;;;;5016311;28;20416;-73
2022/02/20 11:01:51;;;;;;;9.75;2.85;;;11.20;64.20;;;;;;5015966;28;20809;-73
2022/02/20 11:04:17;;;;;;;9.97;2.33;;;11.40;64.70;;;;;;5023697;28;20506;-74
2022/02/20 11:06:50;;;;;;;13.15;2.63;;;11.40;62.80;;;;;;5017282;28;20401;-75
2022/02/20 11:09:16;;;;;;;10.15;2.60;;;11.40;62.20;;;;;;5017530;28;20393;-75
2022/02/20 11:11:49;;;;;;;12.50;4.28;;;11.40;61.20;;;;;;5018699;28;20397;-75
2022/02/20 11:14:21;;;;;;;6.93;2.92;;;11.30;63.30;;;;;;5016980;28;20400;-74
2022/02/20 11:16:47;;;;;;;7.78;2.58;;;11.30;63.60;;;;;;5023385;28;20412;-75
2022/02/20 11:19:16;;;;;;;7.40;2.80;;;11.20;63.20;;;;;;5023251;28;20408;-75
2022/02/20 11:21:45;;;;;;;15.38;4.65;;;11.20;63.90;;;;;;5020832;28;20521;-75
2022/02/20 11:24:11;;;;;;;11.23;3.33;;;11.20;66.00;;;;;;5022852;28;20405;-74
2022/02/20 11:26:41;;;;;;;10.32;3.45;;;11.10;65.10;;;;;;5017699;28;20453;-74
2022/02/20 11:29:06;;;;;;;11.05;2.60;;;11.20;65.40;;;;;;5020490;28;20397;-74
2022/02/20 11:31:32;;;;;;;13.10;3.50;;;11.20;63.50;;;;;;5015622;28;20499;-74
2022/02/20 11:34:01;;;;;;;11.82;3.30;;;11.10;66.60;;;;;;5019950;28;20412;-74
2022/02/20 11:36:29;;;;;;;6.60;2.45;;;11.20;66.60;;;;;;5035160;28;20428;-74
2022/02/20 11:39:09;;;;;;;11.93;3.10;;;11.20;66.20;;;;;;5020210;28;20420;-75
2022/02/20 11:41:37;;;;;;;14.07;3.60;;;11.20;66.20;;;;;;5020755;28;20518;-75
2022/02/20 11:44:19;;;;;;;9.13;3.13;;;11.20;65.50;;;;;;5022334;28;20404;-74
2022/02/20 11:46:50;;;;;;;11.00;3.08;;;11.30;64.90;;;;;;5026574;28;20396;-75
2022/02/20 11:49:19;;;;;;;9.15;2.72;;;11.30;64.40;;;;;;5020077;28;21001;-74
2022/02/20 11:52:03;;;;;;;12.45;2.83;;;11.30;65.20;;;;;;5020843;28;20501;-74
2022/02/20 11:54:30;;;;;;;13.40;3.20;;;11.40;65.40;;;;;;5021134;28;20398;-73
2022/02/20 11:57:26;;;;;;;11.90;3.83;;;11.40;66.60;;;;;;5016389;28;20908;-74
2022/02/20 12:00:03;;;;;;;15.95;4.57;;;11.50;66.20;;;;;;5021516;28;20399;-73
2022/02/20 12:02:32;;;;;;;13.57;3.70;;;11.50;66.50;;;;;;5021409;28;20403;-75
2022/02/20 12:04:58;;;;;;;15.38;3.88;;;11.50;67.50;;;;;;5017025;28;20402;-75
2022/02/20 12:07:46;;;;;;;10.67;3.20;;;11.60;67.70;;;;;;5018341;28;20403;-74
2022/02/20 12:10:18;;;;;;;14.30;4.10;;;11.50;67.60;;;;;;5023625;28;20492;-74
2022/02/20 12:12:46;;;;;;;11.50;3.60;;;11.50;68.20;;;;;;5023318;28;20399;-75
2022/02/20 12:15:26;;;;;;;15.63;3.75;;;11.40;70.00;;;;;;5021101;28;20402;-75
2022/02/20 12:18:19;;;;;;;14.23;3.90;;;11.40;70.80;;;;;;5019731;28;20479;-75
2022/02/20 12:20:57;;;;;;;19.80;4.27;;;11.50;68.40;;;;;;5017864;28;20424;-74
2022/02/20 12:23:29;;;;;;;16.00;4.50;;;11.60;68.40;;;;;;5023683;28;20395;-74
2022/02/20 12:25:55;;;;;;;13.27;4.00;;;11.50;69.60;;;;;;5021113;28;20542;-74
2022/02/20 12:28:35;;;;;;;14.95;4.00;;;11.60;67.80;;;;;;5025488;28;20740;-73
2022/02/20 12:31:13;;;;;;;13.53;3.50;;;11.60;67.40;;;;;;5022605;28;22031;-74
2022/02/20 12:33:45;;;;;;;19.88;3.92;;;11.70;66.60;;;;;;5025253;28;20396;-73
2022/02/20 12:36:12;;;;;;;16.88;4.10;;;11.70;65.40;;;;;;5019733;28;20400;-74
2022/02/20 12:38:53;;;;;;;14.40;3.53;;;11.70;67.20;;;;;;5021346;28;20573;-74
2022/02/20 12:41:19;;;;;;;13.65;4.00;;;11.70;68.10;;;;;;5022732;28;20487;-73
2022/02/20 12:43:49;;;;;;;12.68;4.00;;;11.60;68.50;;;;;;5027636;28;20461;-75
2022/02/20 12:46:15;;;;;;;15.93;4.47;;;11.50;69.40;;;;;;5020640;28;20763;-74
2022/02/20 12:48:41;;;;;;;16.05;4.50;;;11.50;68.70;;;;;;5027823;28;20417;-74